createdAt,value
2019-05-16T00:00:10.353Z,1.35
2019-05-16T00:02:38.795Z,1.20
2019-05-16T00:05:08.452Z,1.22
2019-05-16T00:07:38.896Z,1.20
2019-05-16T00:10:08.385Z,1.40
2019-05-16T00:12:39.577Z,1.30
2019-05-16T00:15:09.101Z,1.10
2019-05-16T00:17:38.603Z,1.30
2019-05-16T00:20:09.489Z,1.20
2019-05-16T00:22:39.399Z,1.37
2019-05-16T00:25:09.537Z,1.50
2019-05-16T00:27:38.607Z,1.10
2019-05-16T00:30:08.981Z,1.47
2019-05-16T00:32:39.062Z,1.32
2019-05-16T00:35:09.183Z,1.50
2019-05-16T00:37:39.108Z,1.27
2019-05-16T00:40:08.841Z,1.22
2019-05-16T00:42:39.147Z,1.37
2019-05-16T00:45:09.269Z,1.52
2019-05-16T00:47:39.010Z,1.70
2019-05-16T00:50:08.822Z,1.62
2019-05-16T00:52:39.366Z,1.80
2019-05-16T00:55:11.799Z,1.55
2019-05-16T00:57:41.170Z,1.82
2019-05-16T01:00:12.573Z,1.50
2019-05-16T01:02:40.973Z,1.35
2019-05-16T01:05:09.552Z,1.60
2019-05-16T01:07:39.271Z,1.50
2019-05-16T01:10:09.335Z,1.25
2019-05-16T01:12:39.141Z,1.77
2019-05-16T01:15:08.738Z,1.60
2019-05-16T01:17:39.100Z,1.72
2019-05-16T01:20:08.518Z,1.65
2019-05-16T01:22:38.590Z,1.67
2019-05-16T01:25:09.534Z,1.70
2019-05-16T01:27:38.761Z,1.50
2019-05-16T01:30:09.040Z,1.60
2019-05-16T01:32:39.152Z,1.80
2019-05-16T01:35:08.664Z,1.95
2019-05-16T01:37:38.351Z,1.67
2019-05-16T01:40:08.357Z,1.70
2019-05-16T01:42:38.548Z,1.82
2019-05-16T01:45:09.425Z,1.57
2019-05-16T01:47:39.266Z,1.80
2019-05-16T01:50:08.856Z,2.00
2019-05-16T01:52:38.349Z,1.85
2019-05-16T01:55:08.475Z,1.87
2019-05-16T01:57:39.067Z,2.00
2019-05-16T02:00:08.746Z,2.12
2019-05-16T02:02:38.570Z,1.87
2019-05-16T02:05:08.666Z,1.92
2019-05-16T02:07:38.788Z,1.80
2019-05-16T02:10:11.051Z,2.12
2019-05-16T02:12:39.499Z,1.70
2019-05-16T02:15:09.353Z,1.72
2019-05-16T02:17:38.648Z,2.02
2019-05-16T02:20:08.646Z,2.10
2019-05-16T02:22:38.906Z,1.95
2019-05-16T02:25:09.828Z,2.02
2019-05-16T02:27:41.124Z,2.25
2019-05-16T02:30:12.373Z,2.30
2019-05-16T02:32:41.627Z,2.20
2019-05-16T02:35:11.788Z,1.90
2019-05-16T02:37:42.264Z,2.08
2019-05-16T02:40:12.390Z,2.30
2019-05-16T02:42:42.149Z,2.22
2019-05-16T02:45:11.487Z,1.98
2019-05-16T02:47:42.431Z,2.00
2019-05-16T02:50:12.206Z,2.10
2019-05-16T02:52:41.464Z,1.77
2019-05-16T02:55:11.902Z,2.20
2019-05-16T02:57:41.746Z,1.92
2019-05-16T03:00:12.346Z,2.20
2019-05-16T03:02:42.163Z,2.30
2019-05-16T03:05:12.239Z,1.98
2019-05-16T03:07:46.804Z,2.20
2019-05-16T03:10:23.288Z,2.20
2019-05-16T03:12:53.972Z,2.37
2019-05-16T03:15:22.380Z,2.35
2019-05-16T03:17:52.618Z,2.10
2019-05-16T03:20:22.637Z,2.40
2019-05-16T03:22:52.004Z,2.50
2019-05-16T03:25:22.225Z,2.17
2019-05-16T03:27:51.335Z,1.98
2019-05-16T03:30:23.777Z,2.20
2019-05-16T03:32:54.836Z,2.50
2019-05-16T03:35:24.535Z,2.60
2019-05-16T03:37:57.119Z,2.40
2019-05-16T03:40:26.486Z,2.20
2019-05-16T03:42:55.190Z,2.33
2019-05-16T03:45:23.614Z,2.47
2019-05-16T03:47:52.122Z,2.45
2019-05-16T03:50:21.790Z,2.55
2019-05-16T03:52:50.975Z,2.75
2019-05-16T03:55:21.444Z,2.60
2019-05-16T03:57:51.577Z,2.50
2019-05-16T04:00:22.849Z,2.62
2019-05-16T04:02:54.008Z,2.40
2019-05-16T04:05:22.433Z,2.50
2019-05-16T04:07:51.590Z,2.50
2019-05-16T04:10:21.700Z,2.30
2019-05-16T04:12:51.316Z,2.40
2019-05-16T04:15:21.498Z,2.33
2019-05-16T04:17:51.298Z,2.60
2019-05-16T04:20:21.517Z,2.17
2019-05-16T04:22:51.293Z,2.42
2019-05-16T04:25:21.667Z,2.40
2019-05-16T04:27:50.376Z,2.58
2019-05-16T04:30:21.831Z,2.35
2019-05-16T04:32:51.036Z,2.40
2019-05-16T04:35:21.451Z,2.70
2019-05-16T04:37:51.320Z,3.37
2019-05-16T04:40:21.955Z,3.10
2019-05-16T04:42:51.292Z,2.72
2019-05-16T04:45:21.071Z,2.85
2019-05-16T04:47:51.122Z,3.10
2019-05-16T04:50:21.238Z,3.30
2019-05-16T04:52:51.833Z,2.77
2019-05-16T04:55:21.071Z,4.85
2019-05-16T04:57:51.135Z,3.52
2019-05-16T05:00:21.136Z,2.77
2019-05-16T05:02:51.896Z,2.80
2019-05-16T05:05:21.467Z,3.15
2019-05-16T05:07:51.103Z,3.45
2019-05-16T05:10:20.687Z,2.70
2019-05-16T05:12:51.579Z,2.70
2019-05-16T05:15:21.513Z,2.65
2019-05-16T05:17:50.343Z,3.02
2019-05-16T05:20:20.986Z,3.37
2019-05-16T05:22:49.988Z,3.33
2019-05-16T05:25:20.408Z,3.08
2019-05-16T05:27:50.080Z,3.05
2019-05-16T05:30:19.788Z,3.27
2019-05-16T05:32:50.241Z,3.70
2019-05-16T05:35:20.578Z,3.40
2019-05-16T05:37:50.938Z,3.40
2019-05-16T05:40:20.111Z,3.45
2019-05-16T05:42:50.494Z,3.02
2019-05-16T05:45:20.110Z,3.70
2019-05-16T05:47:50.499Z,3.80
2019-05-16T05:50:20.185Z,3.67
2019-05-16T05:52:51.185Z,3.87
2019-05-16T05:55:20.131Z,3.45
2019-05-16T05:57:50.649Z,3.67
2019-05-16T06:00:21.018Z,3.12
2019-05-16T06:02:50.810Z,7.65
2019-05-16T06:05:20.228Z,4.47
2019-05-16T06:07:51.012Z,4.70
2019-05-16T06:10:19.928Z,4.87
2019-05-16T06:12:50.028Z,9.08
2019-05-16T06:15:20.355Z,6.50
2019-05-16T06:17:50.918Z,4.70
2019-05-16T06:20:20.347Z,5.25
2019-05-16T06:22:50.919Z,4.75
2019-05-16T06:25:22.699Z,4.00
2019-05-16T06:27:51.196Z,4.20
2019-05-16T06:30:21.389Z,4.28
2019-05-16T06:32:50.232Z,4.37
2019-05-16T06:35:20.259Z,4.15
2019-05-16T06:37:50.055Z,4.28
2019-05-16T06:40:20.258Z,5.10
2019-05-16T06:42:50.971Z,5.00
2019-05-16T06:45:20.571Z,4.95
2019-05-16T06:47:50.346Z,5.10
2019-05-16T06:50:20.801Z,5.80
2019-05-16T06:52:50.208Z,5.50
2019-05-16T06:55:20.534Z,5.05
2019-05-16T06:57:50.339Z,4.50
2019-05-16T07:00:20.958Z,4.75
2019-05-16T07:02:50.154Z,4.95
2019-05-16T07:05:20.796Z,4.53
2019-05-16T07:07:50.869Z,5.40
2019-05-16T07:10:20.337Z,4.55
2019-05-16T07:12:50.354Z,5.15
2019-05-16T07:15:20.636Z,4.62
2019-05-16T07:17:50.678Z,4.97
2019-05-16T07:20:20.988Z,10.30
2019-05-16T07:22:50.405Z,4.90
2019-05-16T07:25:20.801Z,5.00
2019-05-16T07:27:51.103Z,4.67
2019-05-16T07:30:19.998Z,5.42
2019-05-16T07:32:50.005Z,4.80
2019-05-16T07:35:20.494Z,5.22
2019-05-16T07:37:49.968Z,5.70
2019-05-16T07:40:23.745Z,5.10
2019-05-16T07:42:50.974Z,5.30
2019-05-16T07:45:20.428Z,7.33
2019-05-16T07:47:50.888Z,6.25
2019-05-16T07:50:20.159Z,6.70
2019-05-16T07:52:51.190Z,6.78
2019-05-16T07:55:20.799Z,5.60
2019-05-16T07:57:50.654Z,4.58
2019-05-16T08:00:21.604Z,4.53
2019-05-16T08:02:50.606Z,4.87
2019-05-16T08:05:21.115Z,3.77
2019-05-16T08:07:51.141Z,4.60
2019-05-16T08:10:37.095Z,4.30
2019-05-16T08:12:51.274Z,3.98
2019-05-16T08:15:21.416Z,4.08
2019-05-16T08:20:21.381Z,4.80
2019-05-16T08:22:50.876Z,4.33
2019-05-16T08:25:20.500Z,3.58
2019-05-16T08:27:51.907Z,3.75
2019-05-16T08:30:21.048Z,3.87
2019-05-16T08:32:52.871Z,3.45
2019-05-16T08:35:21.071Z,3.85
2019-05-16T08:45:22.016Z,4.78
2019-05-16T08:47:52.631Z,4.28
2019-05-16T08:50:05.380Z,5.60
2019-05-16T08:50:05.527Z,4.50
2019-05-16T08:50:05.719Z,4.28
2019-05-16T08:50:21.888Z,4.28
2019-05-16T08:52:52.877Z,3.50
2019-05-16T08:55:21.805Z,4.20
2019-05-16T08:57:52.922Z,3.55
2019-05-16T09:00:21.894Z,3.40
2019-05-16T09:02:52.530Z,3.90
2019-05-16T09:05:22.732Z,5.90
2019-05-16T09:07:59.846Z,3.90
2019-05-16T09:10:29.681Z,4.10
2019-05-16T09:12:51.862Z,3.87
2019-05-16T09:15:21.030Z,3.65
2019-05-16T09:17:49.569Z,3.02
2019-05-16T09:20:18.331Z,3.12
2019-05-16T09:22:48.079Z,2.95
2019-05-16T09:25:18.528Z,3.05
2019-05-16T09:27:47.589Z,3.40
2019-05-16T09:30:17.547Z,3.52
2019-05-16T09:32:48.013Z,3.00
2019-05-16T09:35:17.298Z,3.17
2019-05-16T09:37:47.311Z,3.30
2019-05-16T09:40:18.065Z,2.60
2019-05-16T09:42:47.483Z,2.92
2019-05-16T09:45:17.227Z,2.75
2019-05-16T09:47:48.446Z,2.85
2019-05-16T09:50:17.453Z,6.90
2019-05-16T09:52:47.260Z,4.47
2019-05-16T09:55:17.833Z,3.27
2019-05-16T09:57:46.981Z,3.12
2019-05-16T10:00:26.901Z,2.95
2019-05-16T10:02:54.745Z,2.65
2019-05-16T10:05:26.402Z,2.62
2019-05-16T10:07:54.013Z,3.05
2019-05-16T10:10:22.766Z,2.72
2019-05-16T10:12:51.250Z,2.77
2019-05-16T10:15:20.225Z,2.42
2019-05-16T10:17:48.705Z,3.37
2019-05-16T10:20:17.504Z,2.87
2019-05-16T10:22:50.566Z,2.77
2019-05-16T10:25:19.557Z,3.20
2019-05-16T10:27:48.398Z,2.67
2019-05-16T10:30:19.963Z,3.05
2019-05-16T10:32:48.465Z,3.10
2019-05-16T10:35:17.263Z,2.95
2019-05-16T10:37:47.057Z,3.15
2019-05-16T10:40:18.190Z,3.35
2019-05-16T10:42:47.197Z,3.87
2019-05-16T10:45:16.661Z,3.00
2019-05-16T10:47:47.849Z,3.72
2019-05-16T10:50:16.615Z,3.00
2019-05-16T10:52:47.514Z,3.15
2019-05-16T10:55:17.700Z,2.90
2019-05-16T10:57:47.485Z,2.92
2019-05-16T11:00:39.639Z,2.90
2019-05-16T11:02:47.765Z,3.12
2019-05-16T11:05:27.050Z,3.55
2019-05-16T11:07:48.631Z,2.77
2019-05-16T11:10:17.037Z,3.37
2019-05-16T11:12:50.971Z,3.15
2019-05-16T11:15:17.218Z,2.60
2019-05-16T11:17:46.044Z,3.08
2019-05-16T11:20:19.664Z,3.12
2019-05-16T11:22:47.730Z,2.87
2019-05-16T11:25:25.075Z,3.83
2019-05-16T11:27:46.976Z,2.83
2019-05-16T11:30:18.246Z,2.75
2019-05-16T11:32:48.171Z,2.98
2019-05-16T11:35:17.370Z,2.35
2019-05-16T11:37:47.272Z,2.67
2019-05-16T11:40:17.743Z,3.30
2019-05-16T11:42:48.713Z,3.00
2019-05-16T11:45:16.912Z,2.65
2019-05-16T11:47:47.104Z,3.30
2019-05-16T11:50:17.578Z,2.55
2019-05-16T11:52:47.659Z,3.10
2019-05-16T11:55:16.589Z,3.02
2019-05-16T11:57:47.365Z,2.50
2019-05-16T12:00:17.812Z,2.80
2019-05-16T12:02:47.824Z,3.08
2019-05-16T12:05:17.213Z,2.80
2019-05-16T12:07:48.417Z,2.70
2019-05-16T12:10:17.266Z,2.80
2019-05-16T12:12:45.715Z,2.22
2019-05-16T12:15:17.515Z,2.47
2019-05-16T12:17:59.151Z,2.45
2019-05-16T12:20:16.646Z,2.77
2019-05-16T12:22:45.287Z,2.60
2019-05-16T12:25:16.557Z,2.25
2019-05-16T12:27:44.516Z,3.10
2019-05-16T12:30:14.136Z,3.00
2019-05-16T12:32:42.685Z,2.42
2019-05-16T12:35:11.544Z,2.40
2019-05-16T12:37:39.985Z,3.00
2019-05-16T12:40:08.947Z,2.77
2019-05-16T12:42:37.402Z,3.10
2019-05-16T12:45:09.062Z,2.58
2019-05-16T12:47:37.851Z,2.87
2019-05-16T12:50:11.588Z,2.85
2019-05-16T12:52:40.373Z,2.80
2019-05-16T12:55:09.357Z,2.87
2019-05-16T12:57:38.506Z,2.58
2019-05-16T13:00:15.127Z,2.90
2019-05-16T13:02:39.143Z,2.60
2019-05-16T13:05:07.913Z,3.10
2019-05-16T13:07:37.677Z,2.52
2019-05-16T13:10:07.110Z,2.37
2019-05-16T13:12:37.750Z,2.92
2019-05-16T13:15:07.157Z,2.65
2019-05-16T13:17:37.219Z,2.42
2019-05-16T13:20:07.959Z,2.80
2019-05-16T13:22:38.536Z,2.90
2019-05-16T13:25:08.246Z,2.70
2019-05-16T13:27:37.531Z,2.65
2019-05-16T13:30:10.426Z,2.80
2019-05-16T13:32:38.986Z,2.50
2019-05-16T13:35:07.999Z,2.45
2019-05-16T13:37:36.520Z,2.58
2019-05-16T13:40:08.124Z,2.30
2019-05-16T13:42:37.153Z,2.30
2019-05-16T13:45:09.280Z,2.37
2019-05-16T13:47:37.976Z,2.53
2019-05-16T13:50:12.210Z,2.70
2019-05-16T13:52:38.528Z,2.53
2019-05-16T13:55:08.925Z,2.47
2019-05-16T13:57:37.725Z,2.70
2019-05-16T14:00:08.775Z,2.37
2019-05-16T14:02:38.045Z,2.17
2019-05-16T14:05:07.892Z,1.90
2019-05-16T14:07:37.422Z,2.10
2019-05-16T14:10:09.646Z,2.20
2019-05-16T14:12:38.195Z,2.58
2019-05-16T14:15:09.489Z,27.50
2019-05-16T14:17:38.158Z,21.93
2019-05-16T14:20:14.580Z,23.52
2019-05-16T14:22:40.399Z,3.50
2019-05-16T14:25:09.656Z,2.98
2019-05-16T14:27:38.520Z,2.52
2019-05-16T14:30:11.173Z,2.40
2019-05-16T14:32:42.943Z,2.80
2019-05-16T14:35:10.368Z,2.10
2019-05-16T14:37:38.789Z,2.15
2019-05-16T14:40:08.509Z,2.33
2019-05-16T14:42:38.590Z,2.40
2019-05-16T14:45:12.799Z,2.20
2019-05-16T14:47:39.974Z,2.77
2019-05-16T14:50:12.959Z,2.17
2019-05-16T14:52:38.937Z,2.25
2019-05-16T14:55:07.556Z,2.50
2019-05-16T14:57:36.857Z,1.98
2019-05-16T15:00:08.026Z,2.98
2019-05-16T15:02:38.175Z,2.10
2019-05-16T15:05:08.064Z,2.30
2019-05-16T15:07:37.620Z,1.85
2019-05-16T15:10:09.572Z,2.00
2019-05-16T15:12:38.017Z,2.05
2019-05-16T15:15:19.371Z,1.70
2019-05-16T15:20:11.409Z,1.62
2019-05-16T15:22:39.920Z,2.20
2019-05-16T15:25:08.566Z,1.98
2019-05-16T15:27:37.541Z,2.10
2019-05-16T15:30:08.404Z,1.82
2019-05-16T15:32:38.534Z,1.80
2019-05-16T15:35:07.720Z,1.60
2019-05-16T15:37:37.203Z,1.40
2019-05-16T15:40:09.612Z,1.70
2019-05-16T15:42:38.063Z,1.77
2019-05-16T15:45:08.598Z,1.77
2019-05-16T15:47:37.833Z,1.57
2019-05-16T15:50:11.284Z,2.00
2019-05-16T15:52:39.769Z,1.50
2019-05-16T15:55:10.073Z,1.65
2019-05-16T15:57:38.792Z,1.95
2019-05-16T16:00:10.453Z,1.60
2019-05-16T16:02:39.358Z,1.93
2019-05-16T16:05:09.322Z,1.85
2019-05-16T16:07:38.163Z,1.70
2019-05-16T16:10:07.889Z,1.65
2019-05-16T16:12:37.671Z,2.00
2019-05-16T16:15:07.958Z,1.85
2019-05-16T16:17:38.005Z,1.75
2019-05-16T16:20:10.478Z,2.35
2019-05-16T16:22:38.207Z,2.12
2019-05-16T16:25:07.328Z,2.00
2019-05-16T16:27:36.024Z,2.87
2019-05-16T16:30:07.070Z,3.15
2019-05-16T16:32:37.923Z,2.77
2019-05-16T16:35:08.001Z,3.70
2019-05-16T16:37:37.710Z,1.90
2019-05-16T16:40:10.836Z,4.20
2019-05-16T16:42:37.494Z,5.03
2019-05-16T16:45:09.672Z,3.85
2019-05-16T16:47:38.196Z,2.37
2019-05-16T16:50:08.105Z,1.70
2019-05-16T16:52:37.776Z,1.60
2019-05-16T16:55:10.291Z,1.70
2019-05-16T16:57:38.802Z,1.70
2019-05-16T17:00:09.223Z,1.70
2019-05-16T17:02:37.824Z,1.50
2019-05-16T17:05:11.898Z,1.62
2019-05-16T17:07:37.669Z,1.70
2019-05-16T17:10:08.133Z,1.50
2019-05-16T17:12:41.663Z,1.40
2019-05-16T17:15:08.756Z,1.60
2019-05-16T17:17:37.958Z,1.60
2019-05-16T17:20:07.957Z,6.87
2019-05-16T17:22:37.643Z,3.05
2019-05-16T17:25:08.360Z,2.80
2019-05-16T17:27:37.557Z,2.95
2019-05-16T17:30:16.907Z,1.70
2019-05-16T17:32:45.150Z,6.53
2019-05-16T17:35:18.550Z,11.85
2019-05-16T17:37:46.826Z,4.70
2019-05-16T17:40:17.553Z,2.42
2019-05-16T17:42:47.682Z,1.92
2019-05-16T17:45:18.105Z,1.70
2019-05-16T17:47:47.015Z,1.85
2019-05-16T17:50:17.226Z,3.65
2019-05-16T17:52:47.701Z,2.67
2019-05-16T17:55:18.449Z,2.42
2019-05-16T17:57:47.238Z,1.45
2019-05-16T18:00:25.328Z,1.30
2019-05-16T18:02:47.116Z,1.20
2019-05-16T18:05:17.082Z,1.35
2019-05-16T18:07:47.439Z,2.20
2019-05-16T18:10:18.138Z,1.45
2019-05-16T18:12:48.080Z,2.10
2019-05-16T18:15:22.928Z,3.47
2019-05-16T18:17:51.453Z,2.75
2019-05-16T18:20:22.293Z,2.17
2019-05-16T18:22:50.552Z,2.02
2019-05-16T18:25:19.205Z,1.98
2019-05-16T18:27:47.697Z,1.80
2019-05-16T18:30:16.924Z,1.67
2019-05-16T18:32:45.339Z,1.70
2019-05-16T18:35:16.545Z,1.42
2019-05-16T18:37:46.330Z,1.67
2019-05-16T18:40:16.614Z,1.60
2019-05-16T18:42:47.599Z,1.62
2019-05-16T18:45:16.539Z,1.50
2019-05-16T18:47:47.048Z,1.50
2019-05-16T18:50:18.005Z,1.70
2019-05-16T18:52:47.221Z,1.50
2019-05-16T18:55:17.358Z,1.80
2019-05-16T18:57:47.212Z,1.80
2019-05-16T19:00:18.023Z,1.25
2019-05-16T19:02:47.838Z,1.50
2019-05-16T19:05:17.365Z,1.77
2019-05-16T19:07:47.556Z,1.65
2019-05-16T19:10:17.638Z,1.70
2019-05-16T19:12:47.821Z,1.70
2019-05-16T19:15:17.801Z,2.00
2019-05-16T19:17:48.172Z,1.60
2019-05-16T19:20:17.392Z,1.52
2019-05-16T19:22:45.947Z,1.60
2019-05-16T19:25:15.226Z,1.77
2019-05-16T19:27:46.326Z,1.95
2019-05-16T19:30:16.548Z,1.82
2019-05-16T19:32:46.902Z,1.50
2019-05-16T19:35:16.444Z,1.80
2019-05-16T19:37:47.031Z,1.82
2019-05-16T19:40:17.161Z,1.62
2019-05-16T19:42:47.170Z,1.62
2019-05-16T19:45:17.065Z,1.85
2019-05-16T19:47:46.973Z,1.40
2019-05-16T19:50:16.236Z,1.50
2019-05-16T19:52:47.013Z,1.70
2019-05-16T19:55:15.085Z,1.60
2019-05-16T19:57:43.487Z,1.70
2019-05-16T20:00:12.672Z,1.80
2019-05-16T20:02:41.103Z,1.70
2019-05-16T20:05:10.106Z,1.80
2019-05-16T20:07:38.630Z,2.75
2019-05-16T20:10:09.489Z,4.25
2019-05-16T20:12:37.870Z,4.20
2019-05-16T20:15:11.388Z,5.67
2019-05-16T20:17:51.021Z,5.17
2019-05-16T20:20:09.980Z,4.60
2019-05-16T20:22:38.432Z,4.67
2019-05-16T20:25:07.398Z,2.58
2019-05-16T20:27:36.808Z,2.67
2019-05-16T20:30:07.768Z,3.58
2019-05-16T20:32:37.190Z,3.45
2019-05-16T20:35:08.983Z,3.37
2019-05-16T20:37:37.238Z,3.50
2019-05-16T20:40:10.846Z,4.20
2019-05-16T20:42:38.876Z,4.20
2019-05-16T20:45:08.844Z,3.37
2019-05-16T20:47:37.285Z,5.92
2019-05-16T20:50:08.040Z,6.10
2019-05-16T20:52:37.770Z,5.45
2019-05-16T20:55:07.685Z,4.47
2019-05-16T20:57:37.613Z,8.08
2019-05-16T21:00:07.865Z,4.80
2019-05-16T21:02:37.840Z,9.98
2019-05-16T21:05:07.482Z,13.20
2019-05-16T21:07:37.544Z,5.50
2019-05-16T21:10:08.168Z,2.98
2019-05-16T21:12:40.172Z,5.62
2019-05-16T21:15:07.943Z,3.40
2019-05-16T21:17:36.448Z,3.83
2019-05-16T21:20:07.417Z,3.15
2019-05-16T21:22:37.062Z,2.90
2019-05-16T21:25:06.331Z,4.45
2019-05-16T21:27:37.558Z,3.60
2019-05-16T21:30:07.826Z,3.70
2019-05-16T21:32:36.782Z,7.60
2019-05-16T21:35:07.278Z,5.97
2019-05-16T21:37:37.424Z,4.65
2019-05-16T21:40:09.294Z,5.85
2019-05-16T21:42:37.788Z,5.22
2019-05-16T21:45:09.524Z,6.10
2019-05-16T21:47:37.958Z,4.65
2019-05-16T21:50:08.339Z,4.80
2019-05-16T21:52:36.866Z,6.58
2019-05-16T21:55:09.397Z,5.67
2019-05-16T21:57:38.036Z,7.53
2019-05-16T22:00:16.754Z,7.40
2019-05-16T22:02:46.699Z,5.22
2019-05-16T22:05:17.135Z,6.60
2019-05-16T22:07:47.405Z,5.47
2019-05-16T22:10:16.366Z,6.72
2019-05-16T22:12:47.470Z,6.20
2019-05-16T22:15:17.108Z,5.58
2019-05-16T22:17:47.177Z,6.00
2019-05-16T22:20:16.564Z,5.62
2019-05-16T22:22:46.960Z,5.30
2019-05-16T22:25:16.754Z,5.72
2019-05-16T22:27:48.326Z,5.83
2019-05-16T22:30:17.404Z,5.65
2019-05-16T22:32:47.175Z,5.60
2019-05-16T22:35:17.708Z,5.10
2019-05-16T22:37:55.194Z,6.37
2019-05-16T22:40:18.128Z,5.10
2019-05-16T22:42:46.961Z,6.00
2019-05-16T22:45:17.757Z,6.03
2019-05-16T22:47:46.754Z,5.67
2019-05-16T22:50:17.599Z,5.83
2019-05-16T22:52:46.494Z,6.03
2019-05-16T22:55:18.898Z,6.25
2019-05-16T22:57:49.307Z,6.45
2019-05-16T23:00:22.709Z,5.90
2019-05-16T23:02:51.281Z,6.12
2019-05-16T23:05:19.725Z,6.08
2019-05-16T23:08:01.798Z,6.65
2019-05-16T23:10:18.397Z,6.47
2019-05-16T23:12:46.837Z,7.15
2019-05-16T23:15:17.095Z,6.85
2019-05-16T23:17:46.555Z,7.28
2019-05-16T23:20:17.068Z,7.40
2019-05-16T23:22:46.983Z,8.05
2019-05-16T23:25:17.086Z,8.55
2019-05-16T23:27:47.405Z,8.85
2019-05-16T23:30:16.640Z,10.63
2019-05-16T23:32:46.990Z,10.98
2019-05-16T23:35:15.388Z,7.87
2019-05-16T23:37:46.224Z,7.17
2019-05-16T23:40:14.585Z,7.42
2019-05-16T23:42:43.121Z,7.03
2019-05-16T23:45:12.191Z,7.42
2019-05-16T23:47:40.712Z,6.90
2019-05-16T23:50:09.909Z,7.25
2019-05-16T23:52:38.321Z,6.00
2019-05-16T23:55:08.399Z,6.75
2019-05-16T23:57:37.547Z,6.37
